createdAt,value
2022-10-18T00:00:06.117Z,89.96
2022-10-18T00:02:32.801Z,90.24
2022-10-18T00:04:59.513Z,90.27
2022-10-18T00:07:26.206Z,90.00
2022-10-18T00:09:52.796Z,90.19
2022-10-18T00:12:19.433Z,89.62
2022-10-18T00:14:50.177Z,89.42
2022-10-18T00:17:17.032Z,89.66
2022-10-18T00:19:43.982Z,89.97
2022-10-18T00:22:10.643Z,90.15
2022-10-18T00:24:37.278Z,90.29
2022-10-18T00:27:04.136Z,90.10
2022-10-18T00:29:30.730Z,89.91
2022-10-18T00:31:57.381Z,89.90
2022-10-18T00:34:23.967Z,89.75
2022-10-18T00:36:50.757Z,89.58
2022-10-18T00:39:19.654Z,89.68
2022-10-18T00:41:47.244Z,89.76
2022-10-18T00:44:13.851Z,90.87
2022-10-18T00:46:43.626Z,91.56
2022-10-18T00:49:23.393Z,90.59
2022-10-18T00:51:55.258Z,90.49
2022-10-18T00:54:23.172Z,90.41
2022-10-18T00:56:50.015Z,90.85
2022-10-18T00:59:18.413Z,91.41
2022-10-18T01:01:46.110Z,91.16
2022-10-18T01:04:15.208Z,91.96
2022-10-18T01:09:51.364Z,91.36
2022-10-18T01:12:51.996Z,91.50
2022-10-18T01:15:25.956Z,91.91
2022-10-18T01:18:05.006Z,91.83
2022-10-18T01:20:43.788Z,91.96
2022-10-18T01:23:31.167Z,92.12
2022-10-18T01:26:26.795Z,91.75
2022-10-18T01:28:59.398Z,91.44
2022-10-18T01:31:33.102Z,91.29
2022-10-18T01:34:07.125Z,91.73
2022-10-18T01:36:41.299Z,91.70
2022-10-18T01:39:13.642Z,92.05
2022-10-18T01:41:45.658Z,92.15
2022-10-18T01:44:19.400Z,92.62
2022-10-18T01:46:47.142Z,92.51
2022-10-18T01:49:16.182Z,92.63
2022-10-18T01:51:42.799Z,92.81
2022-10-18T01:54:13.103Z,92.65
2022-10-18T01:57:03.657Z,93.09
2022-10-18T01:59:54.583Z,93.94
2022-10-18T02:02:58.752Z,93.93
2022-10-18T02:05:28.018Z,94.39
2022-10-18T02:08:23.403Z,95.16
2022-10-18T02:10:56.246Z,95.49
2022-10-18T02:13:26.606Z,95.41
2022-10-18T02:15:59.495Z,95.29
2022-10-18T02:18:35.486Z,94.72
2022-10-18T02:21:05.668Z,94.84
2022-10-18T02:23:34.112Z,94.58
2022-10-18T02:26:01.325Z,94.34
2022-10-18T02:28:28.115Z,94.47
2022-10-18T02:31:00.378Z,94.57
2022-10-18T02:34:01.371Z,94.44
2022-10-18T02:36:39.187Z,94.18
2022-10-18T02:39:11.736Z,94.08
2022-10-18T02:41:38.625Z,93.58
2022-10-18T02:44:05.248Z,93.88
2022-10-18T02:46:32.031Z,93.94
2022-10-18T02:48:58.669Z,94.49
2022-10-18T02:51:25.547Z,94.93
2022-10-18T02:53:52.284Z,95.21
2022-10-18T02:56:19.155Z,95.40
2022-10-18T02:58:45.811Z,95.20
2022-10-18T03:01:12.517Z,95.31
2022-10-18T03:03:44.825Z,95.66
2022-10-18T03:06:11.491Z,95.75
2022-10-18T03:08:38.323Z,96.42
2022-10-18T03:11:22.723Z,96.66
2022-10-18T03:13:56.367Z,96.65
2022-10-18T03:16:43.404Z,96.50
2022-10-18T03:19:20.990Z,96.71
2022-10-18T03:21:47.869Z,96.52
2022-10-18T03:24:17.765Z,96.44
2022-10-18T03:26:44.417Z,96.30
2022-10-18T03:29:11.603Z,96.37
2022-10-18T03:31:41.781Z,95.91
2022-10-18T03:34:08.498Z,96.13
2022-10-18T03:36:35.184Z,96.09
2022-10-18T03:39:01.799Z,95.85
2022-10-18T03:41:28.447Z,95.78
2022-10-18T03:43:55.115Z,95.61
2022-10-18T03:46:21.675Z,96.05
2022-10-18T03:48:48.378Z,96.24
2022-10-18T03:51:24.074Z,96.23
2022-10-18T03:53:50.680Z,96.16
2022-10-18T03:56:17.349Z,96.37
2022-10-18T03:58:57.333Z,95.74
2022-10-18T04:01:36.661Z,95.80
2022-10-18T04:04:03.332Z,95.93
2022-10-18T04:06:29.941Z,95.79
2022-10-18T04:08:56.587Z,95.78
2022-10-18T04:11:23.225Z,95.70
2022-10-18T04:13:53.006Z,95.67
2022-10-18T04:16:19.892Z,95.59
2022-10-18T04:18:46.626Z,95.67
2022-10-18T04:21:13.327Z,95.40
2022-10-18T04:23:40.062Z,95.46
2022-10-18T04:26:07.750Z,95.26
2022-10-18T04:28:35.498Z,95.15
2022-10-18T04:31:02.237Z,95.31
2022-10-18T04:33:28.937Z,95.25
2022-10-18T04:35:55.475Z,95.41
2022-10-18T04:38:22.162Z,95.25
2022-10-18T04:40:48.811Z,95.34
2022-10-18T04:43:15.429Z,95.25
2022-10-18T04:45:44.919Z,95.32
2022-10-18T04:48:11.673Z,95.41
2022-10-18T04:50:38.396Z,95.16
2022-10-18T04:53:05.013Z,95.35
2022-10-18T04:55:31.789Z,95.26
2022-10-18T04:57:58.502Z,95.19
2022-10-18T05:00:25.126Z,94.97
2022-10-18T05:02:57.735Z,94.63
2022-10-18T05:05:27.026Z,94.57
2022-10-18T05:07:59.818Z,94.45
2022-10-18T05:10:26.478Z,94.38
2022-10-18T05:12:53.118Z,94.00
2022-10-18T05:15:19.705Z,94.10
2022-10-18T05:17:49.132Z,94.58
2022-10-18T05:20:16.212Z,94.69
2022-10-18T05:22:42.849Z,94.54
2022-10-18T05:25:09.685Z,94.57
2022-10-18T05:27:36.314Z,94.19
2022-10-18T05:30:05.688Z,93.95
2022-10-18T05:32:32.888Z,93.57
2022-10-18T05:34:59.846Z,93.60
2022-10-18T05:37:28.387Z,93.49
2022-10-18T05:39:55.288Z,93.52
2022-10-18T05:42:22.059Z,93.58
2022-10-18T05:44:48.683Z,93.89
2022-10-18T05:47:18.560Z,94.10
2022-10-18T05:49:45.185Z,93.96
2022-10-18T05:52:14.544Z,93.85
2022-10-18T05:54:41.145Z,93.93
2022-10-18T05:57:08.082Z,94.30
2022-10-18T05:59:34.659Z,94.07
2022-10-18T06:02:01.273Z,93.87
2022-10-18T06:04:28.107Z,93.93
2022-10-18T06:06:56.184Z,93.97
2022-10-18T06:09:22.962Z,93.83
2022-10-18T06:11:49.681Z,93.82
2022-10-18T06:14:16.301Z,93.44
2022-10-18T06:16:43.260Z,93.35
2022-10-18T06:19:10.848Z,93.32
2022-10-18T06:21:38.804Z,92.84
2022-10-18T06:24:05.970Z,92.85
2022-10-18T06:26:32.735Z,92.49
2022-10-18T06:28:59.453Z,92.91
2022-10-18T06:31:29.854Z,93.00
2022-10-18T06:34:08.527Z,93.07
2022-10-18T06:36:35.275Z,93.00
2022-10-18T06:39:02.599Z,93.05
2022-10-18T06:41:29.245Z,92.58
2022-10-18T06:43:57.650Z,92.45
2022-10-18T06:46:24.856Z,92.07
2022-10-18T06:48:51.506Z,91.81
2022-10-18T06:51:18.583Z,91.07
2022-10-18T06:53:59.250Z,90.61
2022-10-18T06:56:31.811Z,90.39
2022-10-18T07:01:30.165Z,90.30
2022-10-18T07:03:57.013Z,90.06
2022-10-18T07:06:24.299Z,90.19
2022-10-18T07:08:54.160Z,90.05
2022-10-18T07:11:26.625Z,89.94
2022-10-18T07:13:54.874Z,90.00
2022-10-18T07:16:21.858Z,89.44
2022-10-18T07:18:50.898Z,89.08
2022-10-18T07:21:20.816Z,89.30
2022-10-18T07:23:47.854Z,89.21
2022-10-18T07:26:18.868Z,89.08
2022-10-18T07:28:48.438Z,89.06
2022-10-18T07:31:15.358Z,89.72
2022-10-18T07:33:43.239Z,90.01
2022-10-18T07:36:14.929Z,89.89
2022-10-18T07:38:41.937Z,89.93
2022-10-18T07:41:10.538Z,90.11
2022-10-18T07:43:37.307Z,89.88
2022-10-18T07:46:07.967Z,89.73
2022-10-18T07:48:34.695Z,89.64
2022-10-18T07:51:02.001Z,89.40
2022-10-18T07:53:29.630Z,89.55
2022-10-18T07:56:03.389Z,89.17
2022-10-18T07:58:33.342Z,88.70
2022-10-18T08:01:04.864Z,88.85
2022-10-18T08:03:31.706Z,88.39
2022-10-18T08:05:58.898Z,88.12
2022-10-18T08:08:26.122Z,88.36
2022-10-18T08:10:53.056Z,87.51
2022-10-18T08:13:20.197Z,87.55
2022-10-18T08:15:47.561Z,87.26
2022-10-18T08:18:14.446Z,86.93
2022-10-18T08:20:45.243Z,86.59
2022-10-18T08:23:12.811Z,86.25
2022-10-18T08:25:39.686Z,86.37
2022-10-18T08:28:07.210Z,86.47
2022-10-18T08:30:36.893Z,86.22
2022-10-18T08:33:04.205Z,86.26
2022-10-18T08:35:31.959Z,86.17
2022-10-18T08:37:59.420Z,85.77
2022-10-18T08:40:29.042Z,85.53
2022-10-18T08:43:21.673Z,84.93
2022-10-18T08:45:51.611Z,84.35
2022-10-18T08:48:27.719Z,83.85
2022-10-18T08:50:57.485Z,83.77
2022-10-18T08:54:05.240Z,83.34
2022-10-18T08:56:33.660Z,82.46
2022-10-18T08:59:04.117Z,81.76
2022-10-18T09:01:43.986Z,82.26
2022-10-18T09:04:48.521Z,81.24
2022-10-18T09:07:23.248Z,81.17
2022-10-18T09:10:14.343Z,81.28
2022-10-18T09:12:59.849Z,80.67
2022-10-18T09:15:59.809Z,81.49
2022-10-18T09:19:02.725Z,81.15
2022-10-18T09:22:07.487Z,80.74
2022-10-18T09:24:40.724Z,81.07
2022-10-18T09:27:22.660Z,80.87
2022-10-18T09:30:15.140Z,80.77
2022-10-18T09:33:02.109Z,80.62
2022-10-18T09:35:33.947Z,79.85
2022-10-18T09:38:10.205Z,77.65
2022-10-18T09:40:46.894Z,76.72
2022-10-18T09:43:22.181Z,75.99
2022-10-18T09:45:51.109Z,75.86
2022-10-18T09:48:31.384Z,76.23
2022-10-18T09:51:12.219Z,76.57
2022-10-18T09:53:45.858Z,75.15
2022-10-18T09:56:41.037Z,74.52
2022-10-18T09:59:32.500Z,73.97
2022-10-18T10:01:59.268Z,75.08
2022-10-18T10:04:26.080Z,74.55
2022-10-18T10:06:57.264Z,74.09
2022-10-18T10:09:36.301Z,74.13
2022-10-18T10:12:03.093Z,73.79
2022-10-18T10:14:30.753Z,73.59
2022-10-18T10:17:19.902Z,73.49
2022-10-18T10:20:17.967Z,73.85
2022-10-18T10:22:47.805Z,73.44
2022-10-18T10:25:26.009Z,70.98
2022-10-18T10:27:53.217Z,71.38
2022-10-18T10:30:36.985Z,71.09
2022-10-18T10:33:04.817Z,70.55
2022-10-18T10:35:53.502Z,70.23
2022-10-18T10:38:28.862Z,70.34
2022-10-18T10:40:56.505Z,70.14
2022-10-18T10:43:38.289Z,69.56
2022-10-18T10:46:13.256Z,69.47
2022-10-18T10:48:48.418Z,69.19
2022-10-18T10:51:19.156Z,69.46
2022-10-18T10:54:03.875Z,68.90
2022-10-18T10:56:33.857Z,69.25
2022-10-18T10:59:17.162Z,68.80
2022-10-18T11:01:48.525Z,68.93
2022-10-18T11:04:30.284Z,68.28
2022-10-18T11:07:09.027Z,67.93
2022-10-18T11:09:50.835Z,64.90
2022-10-18T11:12:20.566Z,66.54
2022-10-18T11:14:54.735Z,67.26
2022-10-18T11:17:32.889Z,66.80
2022-10-18T11:20:02.490Z,65.66
2022-10-18T11:22:33.763Z,66.29
2022-10-18T11:25:02.045Z,66.00
2022-10-18T11:27:32.566Z,64.38
2022-10-18T11:30:17.140Z,64.56
2022-10-18T11:33:01.168Z,64.78
2022-10-18T11:35:38.998Z,64.62
2022-10-18T11:38:29.722Z,64.54
2022-10-18T11:40:59.124Z,63.47
2022-10-18T11:44:01.711Z,64.25
2022-10-18T11:46:36.654Z,62.80
2022-10-18T11:49:03.141Z,62.96
2022-10-18T11:52:07.440Z,63.36
2022-10-18T11:57:23.352Z,62.40
2022-10-18T11:59:55.924Z,61.38
2022-10-18T12:02:50.390Z,60.23
2022-10-18T12:05:25.124Z,60.10
2022-10-18T12:07:52.199Z,58.70
2022-10-18T12:10:31.480Z,58.69
2022-10-18T12:13:09.164Z,57.37
2022-10-18T12:15:39.187Z,58.22
2022-10-18T12:18:10.377Z,59.17
2022-10-18T12:20:43.565Z,59.27
2022-10-18T12:23:10.350Z,58.92
2022-10-18T12:25:39.219Z,58.06
2022-10-18T12:28:25.874Z,57.83
2022-10-18T12:31:11.752Z,58.28
2022-10-18T12:33:40.702Z,58.73
2022-10-18T12:36:14.505Z,58.57
2022-10-18T12:38:42.568Z,59.26
2022-10-18T12:41:51.531Z,59.48
2022-10-18T12:47:21.351Z,60.13
2022-10-18T12:49:55.303Z,60.43
2022-10-18T12:52:22.145Z,60.64
2022-10-18T12:55:09.052Z,60.38
2022-10-18T12:57:55.404Z,61.33
2022-10-18T13:00:41.040Z,61.69
2022-10-18T13:03:14.006Z,61.33
2022-10-18T13:05:54.921Z,61.18
2022-10-18T13:08:28.722Z,61.79
2022-10-18T13:11:02.883Z,60.74
2022-10-18T13:13:40.237Z,60.86
2022-10-18T13:16:29.506Z,61.03
2022-10-18T13:19:14.912Z,61.99
2022-10-18T13:21:50.102Z,61.96
2022-10-18T13:24:35.434Z,60.93
2022-10-18T13:27:37.638Z,61.05
2022-10-18T13:30:25.101Z,61.24
2022-10-18T13:33:03.634Z,61.54
2022-10-18T13:36:07.508Z,61.65
2022-10-18T13:38:43.190Z,61.59
2022-10-18T13:41:12.809Z,60.92
2022-10-18T13:43:52.540Z,60.89
2022-10-18T13:46:19.387Z,61.01
2022-10-18T13:48:50.371Z,61.12
2022-10-18T13:51:28.472Z,60.01
2022-10-18T13:53:54.977Z,59.32
2022-10-18T13:56:35.827Z,58.33
2022-10-18T13:59:15.179Z,58.26
2022-10-18T14:01:52.775Z,56.67
2022-10-18T14:04:32.930Z,57.20
2022-10-18T14:07:02.522Z,56.74
2022-10-18T14:09:44.436Z,56.12
2022-10-18T14:12:17.434Z,56.30
2022-10-18T14:15:04.115Z,54.96
2022-10-18T14:17:44.820Z,53.61
2022-10-18T14:20:24.791Z,53.51
2022-10-18T14:23:02.799Z,54.25
2022-10-18T14:25:42.118Z,53.98
2022-10-18T14:28:12.592Z,53.07
2022-10-18T14:30:58.956Z,52.54
2022-10-18T14:33:36.886Z,52.54
2022-10-18T14:36:14.661Z,52.11
2022-10-18T14:38:59.739Z,52.52
2022-10-18T14:41:29.522Z,52.57
2022-10-18T14:44:15.020Z,52.40
2022-10-18T14:46:59.871Z,53.17
2022-10-18T14:49:26.472Z,54.99
2022-10-18T14:51:54.848Z,57.40
2022-10-18T14:54:32.421Z,59.85
2022-10-18T14:57:00.064Z,61.53
2022-10-18T14:59:28.627Z,63.14
2022-10-18T15:01:58.085Z,64.46
2022-10-18T15:04:32.751Z,64.99
2022-10-18T15:07:03.967Z,66.42
2022-10-18T15:09:35.287Z,67.18
2022-10-18T15:12:05.961Z,67.93
2022-10-18T15:14:32.522Z,68.67
2022-10-18T15:17:01.990Z,69.54
2022-10-18T15:19:33.390Z,69.79
2022-10-18T15:25:03.727Z,70.37
2022-10-18T15:27:32.569Z,70.16
2022-10-18T15:30:08.866Z,70.18
2022-10-18T15:32:37.108Z,70.60
2022-10-18T15:37:50.567Z,71.02
2022-10-18T15:40:26.441Z,71.19
2022-10-18T15:42:58.991Z,72.19
2022-10-18T15:45:27.207Z,72.92
2022-10-18T15:48:11.207Z,73.55
2022-10-18T15:50:42.430Z,73.83
2022-10-18T15:53:20.975Z,73.74
2022-10-18T15:55:52.375Z,73.86
2022-10-18T15:58:20.996Z,73.53
2022-10-18T16:00:49.501Z,74.05
2022-10-18T16:03:21.023Z,74.23
2022-10-18T16:05:48.317Z,74.38
2022-10-18T16:08:24.814Z,74.55
2022-10-18T16:10:52.071Z,74.25
2022-10-18T16:13:19.082Z,74.28
2022-10-18T16:15:51.129Z,74.85
2022-10-18T16:18:20.140Z,75.04
2022-10-18T16:21:17.114Z,75.12
2022-10-18T16:23:43.743Z,75.76
2022-10-18T16:26:11.997Z,75.88
2022-10-18T16:28:42.861Z,76.55
2022-10-18T16:43:39.702Z,78.18
2022-10-18T16:46:07.782Z,78.28
2022-10-18T16:48:34.523Z,78.29
2022-10-18T16:51:04.151Z,78.60
2022-10-18T16:53:31.046Z,78.90
2022-10-18T16:55:59.931Z,78.81
2022-10-18T16:58:28.982Z,78.90
2022-10-18T17:00:56.442Z,78.81
2022-10-18T17:03:27.171Z,79.04
2022-10-18T17:05:54.258Z,79.10
2022-10-18T17:08:24.900Z,79.57
2022-10-18T17:10:54.025Z,80.07
2022-10-18T17:13:22.339Z,80.56
2022-10-18T17:15:50.130Z,80.25
2022-10-18T17:18:21.197Z,80.45
2022-10-18T17:20:49.293Z,80.87
2022-10-18T17:23:16.001Z,80.54
2022-10-18T17:25:57.858Z,80.72
2022-10-18T17:28:33.359Z,80.87
2022-10-18T17:31:00.008Z,81.01
2022-10-18T17:33:26.799Z,81.34
2022-10-18T17:35:53.505Z,81.28
2022-10-18T17:38:20.083Z,81.37
2022-10-18T17:40:46.653Z,81.56
2022-10-18T17:43:15.869Z,81.97
2022-10-18T17:45:51.172Z,82.16
2022-10-18T17:48:19.334Z,82.22
2022-10-18T17:50:46.327Z,82.39
2022-10-18T17:53:15.912Z,82.14
2022-10-18T17:55:49.229Z,82.20
2022-10-18T17:58:15.919Z,82.33
2022-10-18T18:00:48.809Z,82.19
2022-10-18T18:03:22.850Z,82.21
2022-10-18T18:05:49.447Z,82.07
2022-10-18T18:08:44.368Z,82.25
2022-10-18T18:11:11.079Z,83.42
2022-10-18T18:13:39.824Z,83.54
2022-10-18T18:16:15.352Z,83.27
2022-10-18T18:18:42.232Z,83.12
2022-10-18T18:21:15.142Z,83.14
2022-10-18T18:23:45.071Z,83.07
2022-10-18T18:26:11.914Z,83.17
2022-10-18T18:28:42.231Z,83.01
2022-10-18T18:32:04.744Z,83.20
2022-10-18T18:34:40.480Z,83.14
2022-10-18T18:37:08.095Z,83.13
2022-10-18T18:39:35.798Z,83.35
2022-10-18T18:42:04.043Z,83.44
2022-10-18T18:44:32.200Z,83.69
2022-10-18T18:46:59.070Z,83.84
2022-10-18T18:49:28.593Z,83.72
2022-10-18T18:52:15.311Z,84.43
2022-10-18T18:54:42.030Z,84.78
2022-10-18T18:57:08.559Z,84.95
2022-10-18T18:59:35.256Z,84.89
2022-10-18T19:02:01.897Z,84.80
2022-10-18T19:04:29.221Z,84.78
2022-10-18T19:06:56.067Z,85.23
2022-10-18T19:09:23.114Z,85.40
2022-10-18T19:11:56.048Z,85.66
2022-10-18T19:14:25.435Z,86.02
2022-10-18T19:16:59.206Z,86.46
2022-10-18T19:19:29.068Z,86.62
2022-10-18T19:21:58.153Z,86.24
2022-10-18T19:24:27.493Z,85.92
2022-10-18T19:26:55.382Z,85.70
2022-10-18T19:29:30.932Z,85.51
2022-10-18T19:32:00.840Z,85.44
2022-10-18T19:34:29.089Z,85.54
2022-10-18T19:36:56.097Z,85.50
2022-10-18T19:39:25.430Z,85.97
2022-10-18T19:41:57.871Z,85.64
2022-10-18T19:44:27.565Z,86.08
2022-10-18T19:46:54.972Z,85.97
2022-10-18T19:49:24.769Z,85.86
2022-10-18T19:51:51.598Z,86.18
2022-10-18T19:54:18.757Z,85.89
2022-10-18T19:56:45.654Z,86.22
2022-10-18T19:59:14.263Z,86.45
2022-10-18T20:01:41.625Z,86.42
2022-10-18T20:04:09.091Z,86.40
2022-10-18T20:06:37.067Z,86.50
2022-10-18T20:09:05.043Z,87.24
2022-10-18T20:11:32.083Z,87.42
2022-10-18T20:13:59.772Z,87.27
2022-10-18T20:16:29.745Z,86.94
2022-10-18T20:19:05.639Z,86.93
2022-10-18T20:21:35.929Z,87.39
2022-10-18T20:24:04.692Z,86.89
2022-10-18T20:26:31.785Z,87.24
2022-10-18T20:29:00.130Z,87.72
2022-10-18T20:31:34.724Z,87.71
2022-10-18T20:34:03.807Z,88.06
2022-10-18T20:36:32.284Z,88.38
2022-10-18T20:38:59.910Z,88.36
2022-10-18T20:41:29.606Z,88.33
2022-10-18T20:44:02.048Z,88.07
2022-10-18T20:46:35.259Z,87.57
2022-10-18T20:49:02.383Z,88.06
2022-10-18T20:51:29.029Z,87.82
2022-10-18T20:53:55.980Z,87.83
2022-10-18T20:56:26.555Z,88.22
2022-10-18T20:58:57.013Z,88.36
2022-10-18T21:01:26.327Z,88.31
2022-10-18T21:03:54.737Z,88.35
2022-10-18T21:06:26.088Z,88.51
2022-10-18T21:08:57.856Z,88.42
2022-10-18T21:11:26.189Z,88.09
2022-10-18T21:13:54.204Z,88.39
2022-10-18T21:16:20.961Z,88.15
2022-10-18T21:18:51.020Z,87.97
2022-10-18T21:21:24.069Z,88.52
2022-10-18T21:23:51.950Z,88.78
2022-10-18T21:26:25.128Z,88.52
2022-10-18T21:28:53.988Z,89.04
2022-10-18T21:31:26.461Z,89.09
2022-10-18T21:33:55.053Z,88.37
2022-10-18T21:36:21.733Z,88.59
2022-10-18T21:38:48.713Z,88.69
2022-10-18T21:41:17.599Z,88.61
2022-10-18T21:43:46.607Z,88.62
2022-10-18T21:46:14.571Z,88.93
2022-10-18T21:48:46.264Z,89.47
2022-10-18T21:51:14.382Z,89.47
2022-10-18T21:53:49.237Z,89.46
2022-10-18T21:56:18.063Z,89.42
2022-10-18T21:58:45.349Z,89.79
2022-10-18T22:01:21.318Z,89.47
2022-10-18T22:03:49.678Z,89.31
2022-10-18T22:06:19.901Z,89.14
2022-10-18T22:08:52.556Z,89.04
2022-10-18T22:11:22.627Z,89.14
2022-10-18T22:13:49.826Z,89.26
2022-10-18T22:16:18.524Z,89.18
2022-10-18T22:18:47.298Z,88.87
2022-10-18T22:21:16.394Z,88.40
2022-10-18T22:23:48.723Z,88.30
2022-10-18T22:26:20.957Z,88.61
2022-10-18T22:28:53.523Z,88.40
2022-10-18T22:31:23.204Z,88.81
2022-10-18T22:33:58.406Z,88.11
2022-10-18T22:36:25.330Z,88.60
2022-10-18T22:38:54.785Z,89.09
2022-10-18T22:41:21.616Z,89.08
2022-10-18T22:43:50.752Z,89.71
2022-10-18T22:46:18.184Z,89.53
2022-10-18T22:48:45.474Z,89.59
2022-10-18T22:51:15.507Z,89.49
2022-10-18T22:53:42.124Z,89.42
2022-10-18T22:56:11.709Z,89.32
2022-10-18T22:58:38.441Z,89.29
2022-10-18T23:01:07.567Z,89.12
2022-10-18T23:03:34.548Z,88.77
2022-10-18T23:06:01.239Z,88.82
2022-10-18T23:08:28.330Z,88.98
2022-10-18T23:10:59.279Z,89.36
2022-10-18T23:13:30.638Z,89.40
2022-10-18T23:16:04.699Z,89.02
2022-10-18T23:18:33.083Z,88.64
2022-10-18T23:21:05.103Z,88.41
2022-10-18T23:23:37.224Z,88.07
2022-10-18T23:26:13.039Z,87.72
2022-10-18T23:28:42.980Z,87.58
2022-10-18T23:31:12.466Z,88.08
2022-10-18T23:33:39.976Z,88.29
2022-10-18T23:36:08.147Z,88.29
2022-10-18T23:38:36.479Z,88.11
2022-10-18T23:41:03.983Z,88.11
2022-10-18T23:43:30.775Z,88.51
2022-10-18T23:45:57.511Z,89.21
2022-10-18T23:48:24.357Z,89.21
2022-10-18T23:50:51.257Z,89.15
2022-10-18T23:53:19.784Z,89.33
2022-10-18T23:56:00.829Z,89.17
2022-10-18T23:58:30.588Z,88.97
